Time;durP1;ratioP1;P1;durP2;ratioP2;P2;SDS_P1;SDS_P2;PMS_P1;PMS_P2;Temp;Humidity;BMP_temperature;BMP_pressure;BME280_temperature;BME280_humidity;BME280_pressure;Samples;Min_cycle;Max_cycle;Signal;HPM_P1;HPM_P2
2022/01/14 00:01:19;;;;;;;;;;;;;;;;;;5008480;28;20023;-82
2022/01/14 00:03:47;;;;;;;;;;;;;;;;;;5009436;28;19937;-81
2022/01/14 00:06:16;;;;;;;;;;;;;;;;;;5031018;28;20426;-81
2022/01/14 00:08:43;;;;;;;;;;;;;;;;;;5009525;28;20318;-82
2022/01/14 00:11:20;;;;;;;;;;;;;;;;;;5028216;28;19925;-83
2022/01/14 00:16:32;;;;;;;;;;;;;;;;;;5083031;28;19936;-82
2022/01/14 00:18:58;;;;;;;;;;;;;;;;;;5054743;28;20328;-82
2022/01/14 00:21:24;;;;;;;;;;;;;;;;;;5067896;28;19920;-82
2022/01/14 00:24:05;;;;;;;;;;;;;;;;;;5053894;28;19919;-82
2022/01/14 00:32:08;;;;;;;;;;;;;;;;;;5086881;28;21396;-82
2022/01/14 00:34:35;;;;;;;;;;;;;;;;;;5083947;28;20292;-83
2022/01/14 00:37:01;;;;;;;;;;;;;;;;;;5074096;28;19932;-82
2022/01/14 00:39:28;;;;;;;;;;;;;;;;;;5063034;28;19947;-82
2022/01/14 00:41:54;;;;;;;;;;;;;;;;;;5064019;28;19924;-82
2022/01/14 00:44:20;;;;;;;;;;;;;;;;;;5059296;28;19929;-82
2022/01/14 00:46:47;;;;;;;;;;;;;;;;;;5062869;28;19958;-82
2022/01/14 00:49:13;;;;;;;;;;;;;;;;;;5064299;28;20023;-82
2022/01/14 00:51:40;;;;;;;;;;;;;;;;;;5062446;28;19928;-82
2022/01/14 00:54:09;;;;;;;;;;;;;;;;;;5053906;28;19928;-82
2022/01/14 00:59:23;;;;;;;;;;;;;;;;;;5065194;28;19920;-82
2022/01/14 01:01:51;;;;;;;;;;;;;;;;;;5048472;28;19924;-82
2022/01/14 01:04:17;;;;;;;;;;;;;;;;;;5065728;28;19930;-82
2022/01/14 01:06:44;;;;;;;;;;;;;;;;;;5061025;28;20386;-81
2022/01/14 01:09:11;;;;;;;;;;;;;;;;;;5061863;28;19935;-82
2022/01/14 01:11:42;;;;;;;;;;;;;;;;;;5057128;28;19928;-81
2022/01/14 01:14:16;;;;;;;;;;;;;;;;;;5065047;28;20275;-82
2022/01/14 01:16:45;;;;;;;;;;;;;;;;;;5059440;28;19930;-82
2022/01/14 01:19:11;;;;;;;;;;;;;;;;;;5059265;28;20362;-82
2022/01/14 01:21:38;;;;;;;;;;;;;;;;;;5061296;28;19928;-81
2022/01/14 01:24:04;;;;;;;;;;;;;;;;;;5063538;28;19920;-81
2022/01/14 01:26:37;;;;;;;;;;;;;;;;;;5054440;28;20378;-81
2022/01/14 01:31:53;;;;;;;;;;;;;;;;;;5063820;28;19967;-82
2022/01/14 01:34:20;;;;;;;;;;;;;;;;;;5044727;28;19982;-82
2022/01/14 01:36:46;;;;;;;;;;;;;;;;;;5066800;28;19985;-82
2022/01/14 01:39:12;;;;;;;;;;;;;;;;;;5064981;28;19932;-82
2022/01/14 01:41:38;;;;;;;;;;;;;;;;;;5046107;28;19928;-82
2022/01/14 01:44:06;;;;;;;;;;;;;;;;;;5067531;28;19924;-82
2022/01/14 01:46:33;;;;;;;;;;;;;;;;;;5067613;28;19978;-82
2022/01/14 01:48:59;;;;;;;;;;;;;;;;;;5071976;28;19924;-82
2022/01/14 01:51:29;;;;;;;;;;;;;;;;;;5065132;28;19959;-82
2022/01/14 01:53:55;;;;;;;;;;;;;;;;;;5054269;28;19928;-82
2022/01/14 01:56:21;;;;;;;;;;;;;;;;;;5068290;28;20016;-82
2022/01/14 01:58:47;;;;;;;;;;;;;;;;;;5065668;28;20639;-82
2022/01/14 02:01:14;;;;;;;;;;;;;;;;;;5050438;28;19931;-82
2022/01/14 02:03:59;;;;;;;;;;;;;;;;;;5050926;28;19916;-82
2022/01/14 02:06:26;;;;;;;;;;;;;;;;;;5048006;28;19927;-82
2022/01/14 02:08:52;;;;;;;;;;;;;;;;;;5037685;28;19928;-82
2022/01/14 02:11:21;;;;;;;;;;;;;;;;;;5066636;28;19924;-82
2022/01/14 02:13:53;;;;;;;;;;;;;;;;;;5046456;28;19924;-82
2022/01/14 02:19:15;;;;;;;;;;;;;;;;;;5068355;28;20398;-82
2022/01/14 02:24:54;;;;;;;;;;;;;;;;;;5059885;28;19924;-82
2022/01/14 02:27:28;;;;;;;;;;;;;;;;;;5042835;28;19925;-82
2022/01/14 02:29:54;;;;;;;;;;;;;;;;;;5039791;28;19924;-82
2022/01/14 02:32:20;;;;;;;;;;;;;;;;;;5040427;28;19935;-82
2022/01/14 02:34:47;;;;;;;;;;;;;;;;;;5065599;28;19949;-82
2022/01/14 02:37:19;;;;;;;;;;;;;;;;;;5062074;28;20141;-82
2022/01/14 02:39:46;;;;;;;;;;;;;;;;;;5062258;28;19975;-82
2022/01/14 02:42:13;;;;;;;;;;;;;;;;;;5031188;28;19920;-82
2022/01/14 02:44:39;;;;;;;;;;;;;;;;;;5061736;28;22095;-82
2022/01/14 02:47:06;;;;;;;;;;;;;;;;;;5028990;28;21483;-82
2022/01/14 02:49:36;;;;;;;;;;;;;;;;;;5045199;28;20421;-82
2022/01/14 02:52:03;;;;;;;;;;;;;;;;;;5050422;28;19924;-82
2022/01/14 02:54:33;;;;;;;;;;;;;;;;;;5066594;28;20285;-81
2022/01/14 02:57:00;;;;;;;;;;;;;;;;;;5047642;28;19932;-82
2022/01/14 02:59:30;;;;;;;;;;;;;;;;;;5046831;28;19928;-82
2022/01/14 03:02:02;;;;;;;;;;;;;;;;;;5065301;28;19965;-82
2022/01/14 03:04:28;;;;;;;;;;;;;;;;;;5064689;28;19924;-83
2022/01/14 03:07:01;;;;;;;;;;;;;;;;;;5069900;28;22056;-82
2022/01/14 03:09:27;;;;;;;;;;;;;;;;;;5068690;28;20627;-82
2022/01/14 03:11:54;;;;;;;;;;;;;;;;;;5065814;28;19925;-82
2022/01/14 03:14:25;;;;;;;;;;;;;;;;;;5059944;28;19950;-83
2022/01/14 03:16:52;;;;;;;;;;;;;;;;;;5068865;28;19931;-83
2022/01/14 03:19:25;;;;;;;;;;;;;;;;;;5066776;28;20014;-82
2022/01/14 03:21:53;;;;;;;;;;;;;;;;;;5069820;28;19963;-82
2022/01/14 03:25:35;;;;;;;;;;;;;;;;;;5069213;28;20402;-82
2022/01/14 03:27:08;;;;;;;;;;;;;;;;;;5069196;28;19924;-82
2022/01/14 03:29:34;;;;;;;;;;;;;;;;;;5066362;28;19924;-82
2022/01/14 03:32:00;;;;;;;;;;;;;;;;;;5051676;28;19924;-82
2022/01/14 03:34:26;;;;;;;;;;;;;;;;;;5069940;28;19935;-82
2022/01/14 03:36:52;;;;;;;;;;;;;;;;;;5053170;28;20362;-82
2022/01/14 03:39:19;;;;;;;;;;;;;;;;;;5067514;28;19943;-82
2022/01/14 03:41:46;;;;;;;;;;;;;;;;;;5037132;28;19928;-82
2022/01/14 03:44:12;;;;;;;;;;;;;;;;;;5048314;28;19966;-82
2022/01/14 03:46:39;;;;;;;;;;;;;;;;;;5058526;28;20487;-82
2022/01/14 03:49:05;;;;;;;;;;;;;;;;;;5064588;28;20227;-82
2022/01/14 03:51:31;;;;;;;;;;;;;;;;;;5037744;28;19935;-82
2022/01/14 03:54:01;;;;;;;;;;;;;;;;;;5049120;28;20577;-82
2022/01/14 03:56:27;;;;;;;;;;;;;;;;;;5039765;28;19925;-82
2022/01/14 03:58:54;;;;;;;;;;;;;;;;;;5064194;28;20247;-82
2022/01/14 04:01:20;;;;;;;;;;;;;;;;;;5044703;28;20130;-82
2022/01/14 04:03:47;;;;;;;;;;;;;;;;;;5063217;28;20855;-82
2022/01/14 04:06:13;;;;;;;;;;;;;;;;;;5047571;28;19924;-82
2022/01/14 04:08:41;;;;;;;;;;;;;;;;;;5061518;28;21245;-82
2022/01/14 04:11:07;;;;;;;;;;;;;;;;;;5069554;28;19924;-82
2022/01/14 04:13:49;;;;;;;;;;;;;;;;;;5057572;28;19981;-82
2022/01/14 04:16:25;;;;;;;;;;;;;;;;;;5057727;28;19935;-82
2022/01/14 04:18:55;;;;;;;;;;;;;;;;;;5068868;28;20705;-82
2022/01/14 04:21:21;;;;;;;;;;;;;;;;;;5061412;28;20010;-82
2022/01/14 04:23:47;;;;;;;;;;;;;;;;;;5065983;28;19928;-82
2022/01/14 04:26:13;;;;;;;;;;;;;;;;;;5062936;28;19935;-82
2022/01/14 04:28:40;;;;;;;;;;;;;;;;;;5059908;28;19928;-82
2022/01/14 04:31:06;;;;;;;;;;;;;;;;;;5055262;28;19935;-82
2022/01/14 04:33:32;;;;;;;;;;;;;;;;;;5061774;28;19929;-82
2022/01/14 04:36:00;;;;;;;;;;;;;;;;;;5065881;28;19978;-82
2022/01/14 04:38:30;;;;;;;;;;;;;;;;;;5038608;28;21694;-82
2022/01/14 04:40:56;;;;;;;;;;;;;;;;;;5046984;28;20021;-82
2022/01/14 04:43:23;;;;;;;;;;;;;;;;;;5046487;28;19920;-82
2022/01/14 04:48:28;;;;;;;;;;;;;;;;;;5047866;28;20358;-82
2022/01/14 04:50:53;;;;;;;;;;;;;;;;;;5035112;28;19935;-82
2022/01/14 04:53:20;;;;;;;;;;;;;;;;;;5043681;28;19920;-82
2022/01/14 04:56:03;;;;;;;;;;;;;;;;;;5048438;28;19954;-82
2022/01/14 04:58:30;;;;;;;;;;;;;;;;;;5038776;28;19928;-82
2022/01/14 05:00:56;;;;;;;;;;;;;;;;;;5047865;28;19935;-82
2022/01/14 05:03:24;;;;;;;;;;;;;;;;;;5045763;28;20328;-82
2022/01/14 05:05:55;;;;;;;;;;;;;;;;;;5071157;28;19924;-82
2022/01/14 05:08:35;;;;;;;;;;;;;;;;;;5042405;28;19926;-82
2022/01/14 05:13:55;;;;;;;;;;;;;;;;;;5048372;28;19921;-82
2022/01/14 05:16:22;;;;;;;;;;;;;;;;;;5043384;28;19924;-83
2022/01/14 05:18:48;;;;;;;;;;;;;;;;;;5052332;28;19921;-82
2022/01/14 05:21:17;;;;;;;;;;;;;;;;;;5056873;28;19927;-82
2022/01/14 05:23:49;;;;;;;;;;;;;;;;;;5050919;28;19924;-82
2022/01/14 05:26:16;;;;;;;;;;;;;;;;;;5049657;28;19935;-82
2022/01/14 05:28:42;;;;;;;;;;;;;;;;;;5047784;28;20018;-82
2022/01/14 05:31:09;;;;;;;;;;;;;;;;;;5047983;28;19920;-82
2022/01/14 05:33:36;;;;;;;;;;;;;;;;;;5046283;28;19920;-82
2022/01/14 05:36:02;;;;;;;;;;;;;;;;;;5038253;28;19932;-82
2022/01/14 05:38:43;;;;;;;;;;;;;;;;;;5014259;28;20018;-83
2022/01/14 05:41:10;;;;;;;;;;;;;;;;;;5009499;28;19951;-82
2022/01/14 05:43:35;;;;;;;;;;;;;;;;;;5026539;28;19924;-82
2022/01/14 05:46:01;;;;;;;;;;;;;;;;;;5025470;28;19931;-83
2022/01/14 05:51:15;;;;;;;;;;;;;;;;;;5050425;28;19963;-83
2022/01/14 05:53:41;;;;;;;;;;;;;;;;;;5018276;28;19921;-83
2022/01/14 05:56:07;;;;;;;;;;;;;;;;;;5043281;28;19933;-82
2022/01/14 05:58:33;;;;;;;;;;;;;;;;;;5007063;28;19929;-82
2022/01/14 06:01:00;;;;;;;;;;;;;;;;;;5027726;28;19924;-83
2022/01/14 06:03:26;;;;;;;;;;;;;;;;;;5020030;28;19929;-83
2022/01/14 06:05:54;;;;;;;;;;;;;;;;;;5050862;28;19920;-83
2022/01/14 06:08:21;;;;;;;;;;;;;;;;;;5003868;28;19958;-82
2022/01/14 06:10:47;;;;;;;;;;;;;;;;;;5056857;28;19935;-82
2022/01/14 06:13:13;;;;;;;;;;;;;;;;;;5076701;28;19928;-82
2022/01/14 06:15:40;;;;;;;;;;;;;;;;;;5064897;28;22008;-82
2022/01/14 06:18:24;;;;;;;;;;;;;;;;;;5040202;28;19963;-82
2022/01/14 06:20:50;;;;;;;;;;;;;;;;;;5043229;28;19969;-82
2022/01/14 06:23:16;;;;;;;;;;;;;;;;;;5028289;28;19936;-82
2022/01/14 06:25:42;;;;;;;;;;;;;;;;;;5005841;28;20011;-82
2022/01/14 06:28:14;;;;;;;;;;;;;;;;;;5015476;28;20460;-82
2022/01/14 06:30:40;;;;;;;;;;;;;;;;;;5028441;28;20019;-82
2022/01/14 06:33:06;;;;;;;;;;;;;;;;;;5029498;28;20023;-82
2022/01/14 06:35:32;;;;;;;;;;;;;;;;;;5042618;28;19931;-82
2022/01/14 06:38:00;;;;;;;;;;;;;;;;;;5031063;28;20290;-82
2022/01/14 06:40:31;;;;;;;;;;;;;;;;;;5026351;28;20885;-82
2022/01/14 06:42:58;;;;;;;;;;;;;;;;;;5012538;28;19924;-82
2022/01/14 06:45:24;;;;;;;;;;;;;;;;;;5012332;28;20362;-82
2022/01/14 06:47:51;;;;;;;;;;;;;;;;;;4995582;28;19964;-82
2022/01/14 06:50:17;;;;;;;;;;;;;;;;;;5023892;28;20440;-82
2022/01/14 06:52:43;;;;;;;;;;;;;;;;;;5046693;28;20066;-82
2022/01/14 06:55:09;;;;;;;;;;;;;;;;;;5065925;28;19927;-83
2022/01/14 06:57:40;;;;;;;;;;;;;;;;;;5064444;28;22191;-83
2022/01/14 07:00:06;;;;;;;;;;;;;;;;;;5065990;28;20382;-83
2022/01/14 07:02:32;;;;;;;;;;;;;;;;;;5063937;28;20017;-83
2022/01/14 07:04:59;;;;;;;;;;;;;;;;;;5049156;28;19931;-83
2022/01/14 07:07:27;;;;;;;;;;;;;;;;;;5064976;28;19920;-83
2022/01/14 07:09:58;;;;;;;;;;;;;;;;;;5063104;28;19984;-84
2022/01/14 07:12:32;;;;;;;;;;;;;;;;;;5042408;28;19950;-84
2022/01/14 07:14:58;;;;;;;;;;;;;;;;;;5047729;28;20217;-84
2022/01/14 07:17:24;;;;;;;;;;;;;;;;;;5030011;28;19924;-85
2022/01/14 07:19:53;;;;;;;;;;;;;;;;;;5052986;28;20283;-85
2022/01/14 07:22:21;;;;;;;;;;;;;;;;;;5047042;28;20401;-85
2022/01/14 07:25:02;;;;;;;;;;;;;;;;;;5019747;28;19994;-84
2022/01/14 07:27:28;;;;;;;;;;;;;;;;;;5003303;28;20331;-85
2022/01/14 07:29:54;;;;;;;;;;;;;;;;;;5011855;28;19936;-84
2022/01/14 07:32:20;;;;;;;;;;;;;;;;;;5009659;28;19930;-84
2022/01/14 07:35:02;;;;;;;;;;;;;;;;;;4980668;28;19948;-84
2022/01/14 07:37:28;;;;;;;;;;;;;;;;;;4978487;28;19934;-84
2022/01/14 07:39:54;;;;;;;;;;;;;;;;;;4962014;28;19930;-84
2022/01/14 07:42:21;;;;;;;;;;;;;;;;;;4949435;28;19921;-84
2022/01/14 07:44:48;;;;;;;;;;;;;;;;;;4968604;28;19929;-84
2022/01/14 07:47:29;;;;;;;;;;;;;;;;;;4949114;28;19997;-83
2022/01/14 07:49:55;;;;;;;;;;;;;;;;;;4920808;28;20392;-84
2022/01/14 07:52:21;;;;;;;;;;;;;;;;;;4948582;28;19930;-83
2022/01/14 07:54:47;;;;;;;;;;;;;;;;;;4949894;28;20001;-85
2022/01/14 07:57:15;;;;;;;;;;;;;;;;;;4972046;28;19937;-82
2022/01/14 07:59:41;;;;;;;;;;;;;;;;;;4973899;28;19926;-80
2022/01/14 08:02:08;;;;;;;;;;;;;;;;;;4975212;28;19936;-81
2022/01/14 08:04:36;;;;;;;;;;;;;;;;;;4995155;28;20283;-81
2022/01/14 08:07:10;;;;;;;;;;;;;;;;;;5028409;28;20407;-82
2022/01/14 08:09:42;;;;;;;;;;;;;;;;;;5024893;28;19967;-82
2022/01/14 08:12:08;;;;;;;;;;;;;;;;;;5012797;28;19940;-82
2022/01/14 08:14:34;;;;;;;;;;;;;;;;;;5001713;28;19925;-81
2022/01/14 08:17:01;;;;;;;;;;;;;;;;;;5027778;28;22387;-82
2022/01/14 08:19:32;;;;;;;;;;;;;;;;;;5058912;28;19928;-81
2022/01/14 08:21:59;;;;;;;;;;;;;;;;;;5050674;28;19982;-82
2022/01/14 08:24:25;;;;;;;;;;;;;;;;;;5064184;28;19930;-81
2022/01/14 08:26:51;;;;;;;;;;;;;;;;;;5065178;28;19921;-82
2022/01/14 08:29:20;;;;;;;;;;;;;;;;;;5065990;28;19924;-82
2022/01/14 08:31:46;;;;;;;;;;;;;;;;;;5067618;28;19926;-82
2022/01/14 08:34:12;;;;;;;;;;;;;;;;;;5069944;28;19997;-82
2022/01/14 08:36:38;;;;;;;;;;;;;;;;;;5060965;28;20386;-81
2022/01/14 08:39:04;;;;;;;;;;;;;;;;;;5074638;28;19924;-81
2022/01/14 08:41:30;;;;;;;;;;;;;;;;;;5081492;27;19946;-81
2022/01/14 08:43:57;;;;;;;;;;;;;;;;;;5085109;28;20327;-81
2022/01/14 08:46:23;;;;;;;;;;;;;;;;;;5060229;28;19924;-82
2022/01/14 08:48:49;;;;;;;;;;;;;;;;;;5055029;28;19927;-82
2022/01/14 08:51:15;;;;;;;;;;;;;;;;;;5066594;28;19920;-82
2022/01/14 08:53:41;;;;;;;;;;;;;;;;;;5069311;28;20461;-82
2022/01/14 08:56:08;;;;;;;;;;;;;;;;;;5070680;28;19942;-82
2022/01/14 08:58:34;;;;;;;;;;;;;;;;;;5084331;28;19927;-82
2022/01/14 09:01:00;;;;;;;;;;;;;;;;;;5072689;28;20340;-82
2022/01/14 09:03:27;;;;;;;;;;;;;;;;;;5066492;28;20061;-82
2022/01/14 09:05:53;;;;;;;;;;;;;;;;;;5070855;28;19930;-82
2022/01/14 09:08:20;;;;;;;;;;;;;;;;;;5070432;28;20002;-82
2022/01/14 09:10:46;;;;;;;;;;;;;;;;;;5074085;28;20366;-83
2022/01/14 09:13:13;;;;;;;;;;;;;;;;;;5068774;28;19950;-82
2022/01/14 09:15:39;;;;;;;;;;;;;;;;;;5085204;28;20019;-82
2022/01/14 09:18:05;;;;;;;;;;;;;;;;;;5069313;28;20000;-82
2022/01/14 09:20:32;;;;;;;;;;;;;;;;;;5065791;28;19931;-82
2022/01/14 09:22:59;;;;;;;;;;;;;;;;;;5069123;28;19919;-82
2022/01/14 09:25:26;;;;;;;;;;;;;;;;;;5087046;28;19968;-82
2022/01/14 09:27:52;;;;;;;;;;;;;;;;;;5094270;28;20364;-82
2022/01/14 09:30:19;;;;;;;;;;;;;;;;;;5086280;28;20266;-82
2022/01/14 09:32:45;;;;;;;;;;;;;;;;;;5073415;28;19967;-82
2022/01/14 09:35:13;;;;;;;;;;;;;;;;;;5074726;28;19963;-82
2022/01/14 09:37:40;;;;;;;;;;;;;;;;;;5082241;28;20720;-82
2022/01/14 09:40:08;;;;;;;;;;;;;;;;;;5066619;28;19962;-82
2022/01/14 09:42:34;;;;;;;;;;;;;;;;;;5067995;28;19927;-82
2022/01/14 09:45:00;;;;;;;;;;;;;;;;;;5070816;28;20319;-82
2022/01/14 09:47:26;;;;;;;;;;;;;;;;;;5064908;28;19928;-82
2022/01/14 09:49:52;;;;;;;;;;;;;;;;;;5062695;28;20263;-82
2022/01/14 09:52:21;;;;;;;;;;;;;;;;;;5067858;28;19928;-82
2022/01/14 09:54:47;;;;;;;;;;;;;;;;;;5064202;28;19928;-82
2022/01/14 09:57:14;;;;;;;;;;;;;;;;;;5065453;28;19928;-82
2022/01/14 09:59:40;;;;;;;;;;;;;;;;;;5062561;28;19934;-82
2022/01/14 10:02:06;;;;;;;;;;;;;;;;;;5054042;28;19925;-82
2022/01/14 10:04:32;;;;;;;;;;;;;;;;;;5067219;28;20309;-82
2022/01/14 10:06:59;;;;;;;;;;;;;;;;;;5075496;28;19924;-82
2022/01/14 10:09:27;;;;;;;;;;;;;;;;;;5051174;28;19928;-82
2022/01/14 10:11:53;;;;;;;;;;;;;;;;;;5071277;28;20027;-82
2022/01/14 10:14:20;;;;;;;;;;;;;;;;;;5071783;28;19931;-82
2022/01/14 10:16:49;;;;;;;;;;;;;;;;;;5072992;28;20016;-82
2022/01/14 10:19:15;;;;;;;;;;;;;;;;;;5071162;28;20014;-82
2022/01/14 10:21:41;;;;;;;;;;;;;;;;;;5060703;28;20317;-82
2022/01/14 10:24:08;;;;;;;;;;;;;;;;;;5063626;28;21443;-82
2022/01/14 10:26:34;;;;;;;;;;;;;;;;;;5060557;28;19924;-82
2022/01/14 10:29:00;;;;;;;;;;;;;;;;;;5067094;28;20578;-82
2022/01/14 10:31:26;;;;;;;;;;;;;;;;;;5066430;28;19924;-82
2022/01/14 10:33:52;;;;;;;;;;;;;;;;;;5072546;28;20025;-82
2022/01/14 10:36:18;;;;;;;;;;;;;;;;;;5067380;28;19924;-82
2022/01/14 10:38:54;;;;;;;;;;;;;;;;;;5078144;28;19928;-82
2022/01/14 10:41:22;;;;;;;;;;;;;;;;;;5055021;28;19995;-82
2022/01/14 10:43:48;;;;;;;;;;;;;;;;;;5075013;28;20319;-82
2022/01/14 10:46:15;;;;;;;;;;;;;;;;;;5073534;28;19928;-81
2022/01/14 10:48:41;;;;;;;;;;;;;;;;;;5056919;28;19927;-82
2022/01/14 10:51:08;;;;;;;;;;;;;;;;;;5075484;28;19920;-81
2022/01/14 10:53:35;;;;;;;;;;;;;;;;;;5056936;28;19927;-81
2022/01/14 10:56:01;;;;;;;;;;;;;;;;;;5058186;28;19928;-82
2022/01/14 10:58:27;;;;;;;;;;;;;;;;;;5056474;28;20281;-81
2022/01/14 11:00:54;;;;;;;;;;;;;;;;;;5088243;28;20377;-81
2022/01/14 11:03:20;;;;;;;;;;;;;;;;;;5054372;28;19920;-81
2022/01/14 11:05:46;;;;;;;;;;;;;;;;;;5074547;28;19999;-81
2022/01/14 11:08:13;;;;;;;;;;;;;;;;;;5092170;28;19974;-81
2022/01/14 11:10:39;;;;;;;;;;;;;;;;;;5071902;28;19927;-82
2022/01/14 11:13:11;;;;;;;;;;;;;;;;;;5091248;28;19924;-82
2022/01/14 11:15:37;;;;;;;;;;;;;;;;;;5086774;27;20486;-82
2022/01/14 11:18:07;;;;;;;;;;;;;;;;;;5072317;28;19932;-81
2022/01/14 11:20:37;;;;;;;;;;;;;;;;;;5093638;27;19920;-81
2022/01/14 11:23:21;;;;;;;;;;;;;;;;;;5092394;27;19931;-82
2022/01/14 11:25:57;;;;;;;;;;;;;;;;;;5069316;28;19924;-82
2022/01/14 11:28:26;;;;;;;;;;;;;;;;;;5090615;28;19924;-81
2022/01/14 11:30:52;;;;;;;;;;;;;;;;;;5091986;27;20019;-81
2022/01/14 11:33:21;;;;;;;;;;;;;;;;;;5090081;28;20015;-81
2022/01/14 11:35:51;;;;;;;;;;;;;;;;;;5075769;28;19931;-81
2022/01/14 11:38:20;;;;;;;;;;;;;;;;;;5092590;28;19924;-81
2022/01/14 11:40:47;;;;;;;;;;;;;;;;;;5091034;28;19946;-81
2022/01/14 11:43:13;;;;;;;;;;;;;;;;;;5089147;28;19973;-81
2022/01/14 11:45:40;;;;;;;;;;;;;;;;;;5071330;28;19931;-81
2022/01/14 11:48:06;;;;;;;;;;;;;;;;;;5071842;28;19920;-81
2022/01/14 11:50:32;;;;;;;;;;;;;;;;;;5050845;28;19921;-81
2022/01/14 11:52:59;;;;;;;;;;;;;;;;;;5088265;27;20014;-81
2022/01/14 11:55:25;;;;;;;;;;;;;;;;;;5085772;28;19924;-81
2022/01/14 11:57:52;;;;;;;;;;;;;;;;;;5087882;28;19924;-81
2022/01/14 12:00:19;;;;;;;;;;;;;;;;;;5054375;28;19920;-81
2022/01/14 12:02:46;;;;;;;;;;;;;;;;;;5073749;28;19954;-81
2022/01/14 12:05:14;;;;;;;;;;;;;;;;;;5073226;28;20013;-81
2022/01/14 12:07:40;;;;;;;;;;;;;;;;;;5053251;28;20068;-81
2022/01/14 12:10:09;;;;;;;;;;;;;;;;;;5073225;28;20569;-81
2022/01/14 12:12:36;;;;;;;;;;;;;;;;;;5067721;28;20361;-81
2022/01/14 12:15:04;;;;;;;;;;;;;;;;;;5074538;28;19928;-82
2022/01/14 12:17:31;;;;;;;;;;;;;;;;;;5084288;28;19931;-79
2022/01/14 12:19:57;;;;;;;;;;;;;;;;;;5084868;28;20045;-80
2022/01/14 12:22:24;;;;;;;;;;;;;;;;;;5088957;27;20006;-81
2022/01/14 12:24:50;;;;;;;;;;;;;;;;;;5090261;28;19924;-82
2022/01/14 12:27:17;;;;;;;;;;;;;;;;;;5088957;28;19932;-82
2022/01/14 12:29:43;;;;;;;;;;;;;;;;;;5089019;27;19927;-82
2022/01/14 12:32:13;;;;;;;;;;;;;;;;;;5089207;28;19942;-81
2022/01/14 12:34:40;;;;;;;;;;;;;;;;;;5069657;28;19935;-81
2022/01/14 12:37:06;;;;;;;;;;;;;;;;;;5091289;28;19923;-81
2022/01/14 12:39:33;;;;;;;;;;;;;;;;;;5066061;28;19939;-81
2022/01/14 12:42:00;;;;;;;;;;;;;;;;;;5085981;28;19924;-81
2022/01/14 12:44:26;;;;;;;;;;;;;;;;;;5062817;28;19931;-82
2022/01/14 12:46:54;;;;;;;;;;;;;;;;;;5072336;28;19928;-82
2022/01/14 12:49:23;;;;;;;;;;;;;;;;;;5069054;28;19928;-82
2022/01/14 12:51:49;;;;;;;;;;;;;;;;;;5069576;28;20350;-82
2022/01/14 12:54:16;;;;;;;;;;;;;;;;;;5067215;28;19982;-81
2022/01/14 12:56:42;;;;;;;;;;;;;;;;;;5060827;28;20320;-82
2022/01/14 12:59:09;;;;;;;;;;;;;;;;;;5069469;28;19943;-82
2022/01/14 13:01:38;;;;;;;;;;;;;;;;;;5032588;28;19959;-82
2022/01/14 13:04:04;;;;;;;;;;;;;;;;;;5071383;28;19943;-82
2022/01/14 13:06:31;;;;;;;;;;;;;;;;;;5069975;28;20408;-82
2022/01/14 13:08:57;;;;;;;;;;;;;;;;;;5070227;28;19959;-82
2022/01/14 13:11:38;;;;;;;;;;;;;;;;;;5066342;28;19927;-82
2022/01/14 13:14:05;;;;;;;;;;;;;;;;;;5064249;28;20247;-82
2022/01/14 13:16:33;;;;;;;;;;;;;;;;;;5062423;28;20413;-82
2022/01/14 13:18:59;;;;;;;;;;;;;;;;;;5068484;28;20010;-81
2022/01/14 13:21:25;;;;;;;;;;;;;;;;;;5067313;28;20073;-81
2022/01/14 13:23:51;;;;;;;;;;;;;;;;;;5066698;28;19916;-82
2022/01/14 13:26:19;;;;;;;;;;;;;;;;;;5068680;28;20028;-82
2022/01/14 13:28:45;;;;;;;;;;;;;;;;;;5061625;28;20000;-82
2022/01/14 13:31:11;;;;;;;;;;;;;;;;;;5064764;28;20392;-80
2022/01/14 13:33:37;;;;;;;;;;;;;;;;;;5059834;28;19920;-81
2022/01/14 13:36:04;;;;;;;;;;;;;;;;;;5063746;28;20292;-81
2022/01/14 13:38:30;;;;;;;;;;;;;;;;;;5067168;28;19928;-82
2022/01/14 13:40:57;;;;;;;;;;;;;;;;;;5073580;28;20026;-82
2022/01/14 13:43:23;;;;;;;;;;;;;;;;;;5063483;28;19920;-82
2022/01/14 13:45:52;;;;;;;;;;;;;;;;;;5065284;28;19929;-82
2022/01/14 13:48:22;;;;;;;;;;;;;;;;;;5074231;28;20265;-82
2022/01/14 13:50:58;;;;;;;;;;;;;;;;;;5067472;28;20011;-82
2022/01/14 13:53:28;;;;;;;;;;;;;;;;;;5061854;28;19920;-82
2022/01/14 13:56:13;;;;;;;;;;;;;;;;;;5030057;28;19925;-82
2022/01/14 13:58:39;;;;;;;;;;;;;;;;;;5010166;28;20883;-82
2022/01/14 14:01:06;;;;;;;;;;;;;;;;;;5014616;28;19920;-82
2022/01/14 14:03:38;;;;;;;;;;;;;;;;;;5022193;28;20471;-82
2022/01/14 14:06:04;;;;;;;;;;;;;;;;;;5011050;28;19917;-82
2022/01/14 14:08:42;;;;;;;;;;;;;;;;;;5005170;28;20585;-81
2022/01/14 14:16:39;;;;;;;;;;;;;;;;;;5012983;28;19933;-82
2022/01/14 14:19:05;;;;;;;;;;;;;;;;;;5024496;28;19921;-82
2022/01/14 14:21:33;;;;;;;;;;;;;;;;;;5004806;28;19983;-81
2022/01/14 14:24:00;;;;;;;;;;;;;;;;;;5031868;28;19921;-82
2022/01/14 14:26:43;;;;;;;;;;;;;;;;;;4997493;28;20359;-82
2022/01/14 14:29:10;;;;;;;;;;;;;;;;;;5032881;28;20383;-82
2022/01/14 14:31:36;;;;;;;;;;;;;;;;;;5013199;28;19924;-82
2022/01/14 14:34:03;;;;;;;;;;;;;;;;;;5013162;28;19935;-83
2022/01/14 14:36:39;;;;;;;;;;;;;;;;;;5023407;28;20044;-82
2022/01/14 14:39:06;;;;;;;;;;;;;;;;;;5024563;28;19929;-83
2022/01/14 14:41:33;;;;;;;;;;;;;;;;;;5024817;28;19925;-83
2022/01/14 14:43:59;;;;;;;;;;;;;;;;;;5025565;28;19932;-83
2022/01/14 14:46:25;;;;;;;;;;;;;;;;;;5019629;28;19929;-84
2022/01/14 14:48:53;;;;;;;;;;;;;;;;;;5018633;28;20024;-81
2022/01/14 14:51:25;;;;;;;;;;;;;;;;;;5006696;28;20325;-81
2022/01/14 14:54:09;;;;;;;;;;;;;;;;;;5020453;28;19921;-82
2022/01/14 14:56:39;;;;;;;;;;;;;;;;;;5018137;28;20016;-82
2022/01/14 14:59:05;;;;;;;;;;;;;;;;;;5074451;28;19927;-82
2022/01/14 15:01:31;;;;;;;;;;;;;;;;;;5064725;28;19978;-82
2022/01/14 15:04:01;;;;;;;;;;;;;;;;;;5062946;28;21495;-81
2022/01/14 15:06:29;;;;;;;;;;;;;;;;;;5051096;28;20020;-81
2022/01/14 15:08:56;;;;;;;;;;;;;;;;;;5069211;28;19928;-80
2022/01/14 15:11:23;;;;;;;;;;;;;;;;;;5063534;28;19916;-81
2022/01/14 15:13:50;;;;;;;;;;;;;;;;;;5067195;28;19928;-81
2022/01/14 15:16:47;;;;;;;;;;;;;;;;;;5068457;28;20622;-81
2022/01/14 15:19:36;;;;;;;;;;;;;;;;;;5064819;28;20025;-81
2022/01/14 15:22:02;;;;;;;;;;;;;;;;;;5065551;28;19924;-81
2022/01/14 15:24:29;;;;;;;;;;;;;;;;;;5063152;28;19935;-82
2022/01/14 15:26:55;;;;;;;;;;;;;;;;;;5053559;28;19924;-82
2022/01/14 15:29:21;;;;;;;;;;;;;;;;;;5057840;28;19929;-82
2022/01/14 15:31:47;;;;;;;;;;;;;;;;;;5058792;28;20046;-81
2022/01/14 15:34:15;;;;;;;;;;;;;;;;;;5070899;28;19956;-81
2022/01/14 15:36:41;;;;;;;;;;;;;;;;;;5057967;28;22145;-81
2022/01/14 15:39:08;;;;;;;;;;;;;;;;;;5062552;28;20006;-81
2022/01/14 15:41:34;;;;;;;;;;;;;;;;;;5047458;28;20632;-81
2022/01/14 15:44:01;;;;;;;;;;;;;;;;;;5045620;28;19934;-81
2022/01/14 15:46:27;;;;;;;;;;;;;;;;;;5063272;28;19935;-81
2022/01/14 15:48:54;;;;;;;;;;;;;;;;;;5069149;28;19924;-81
2022/01/14 15:51:24;;;;;;;;;;;;;;;;;;5056730;28;19920;-81
2022/01/14 15:57:08;;;;;;;;;;;;;;;;;;5082716;28;19949;-81
2022/01/14 15:59:35;;;;;;;;;;;;;;;;;;5079942;28;19934;-81
2022/01/14 16:02:02;;;;;;;;;;;;;;;;;;5080712;28;19916;-81
2022/01/14 16:04:29;;;;;;;;;;;;;;;;;;5076507;27;19928;-81
2022/01/14 16:06:55;;;;;;;;;;;;;;;;;;5081395;28;19979;-82
2022/01/14 16:09:21;;;;;;;;;;;;;;;;;;5078543;28;19927;-81
2022/01/14 16:11:50;;;;;;;;;;;;;;;;;;5070480;27;19952;-81
2022/01/14 16:14:34;;;;;;;;;;;;;;;;;;5017399;28;20363;-82
2022/01/14 16:17:02;;;;;;;;;;;;;;;;;;5031767;28;19932;-81
2022/01/14 16:19:28;;;;;;;;;;;;;;;;;;5025636;28;19925;-81
2022/01/14 16:21:55;;;;;;;;;;;;;;;;;;5019501;28;19929;-80
2022/01/14 16:24:22;;;;;;;;;;;;;;;;;;5022273;28;19929;-80
2022/01/14 16:26:48;;;;;;;;;;;;;;;;;;5008304;28;19933;-81
2022/01/14 16:29:20;;;;;;;;;;;;;;;;;;5006295;28;19931;-83
2022/01/14 16:31:46;;;;;;;;;;;;;;;;;;5023394;28;19931;-83
2022/01/14 16:34:13;;;;;;;;;;;;;;;;;;5010149;28;19964;-82
2022/01/14 16:36:41;;;;;;;;;;;;;;;;;;5020213;28;20006;-82
2022/01/14 16:39:09;;;;;;;;;;;;;;;;;;5007283;28;19936;-83
2022/01/14 16:41:35;;;;;;;;;;;;;;;;;;5022913;28;19928;-82
2022/01/14 16:44:01;;;;;;;;;;;;;;;;;;5026791;28;19963;-82
2022/01/14 16:46:27;;;;;;;;;;;;;;;;;;5080818;28;20026;-83
2022/01/14 16:48:57;;;;;;;;;;;;;;;;;;5074012;28;19924;-82
2022/01/14 16:51:23;;;;;;;;;;;;;;;;;;5085112;28;19928;-82
2022/01/14 16:53:49;;;;;;;;;;;;;;;;;;5055951;28;19920;-82
2022/01/14 16:56:15;;;;;;;;;;;;;;;;;;5055282;28;20372;-82
2022/01/14 16:58:43;;;;;;;;;;;;;;;;;;5066067;28;19928;-82
2022/01/14 17:01:09;;;;;;;;;;;;;;;;;;5070747;28;20339;-82
2022/01/14 17:03:37;;;;;;;;;;;;;;;;;;5067305;28;20382;-82
2022/01/14 17:06:05;;;;;;;;;;;;;;;;;;5052387;28;24756;-81
2022/01/14 17:08:31;;;;;;;;;;;;;;;;;;5045716;28;19950;-83
2022/01/14 17:11:04;;;;;;;;;;;;;;;;;;5054851;28;19961;-83
2022/01/14 17:13:30;;;;;;;;;;;;;;;;;;5055240;28;19932;-83
2022/01/14 17:15:56;;;;;;;;;;;;;;;;;;5057149;28;19924;-82
2022/01/14 17:18:24;;;;;;;;;;;;;;;;;;5053114;28;19939;-83
2022/01/14 17:20:50;;;;;;;;;;;;;;;;;;5074189;28;19959;-83
2022/01/14 17:23:17;;;;;;;;;;;;;;;;;;5091904;28;19970;-83
2022/01/14 17:25:44;;;;;;;;;;;;;;;;;;5071751;28;19926;-84
2022/01/14 17:28:15;;;;;;;;;;;;;;;;;;5074956;28;19924;-83